Portada
METAR-TAF:

METAR-TAF

Aeroports :

Vadsø, Noruega

latitud: 70-04N, longitud: 029-51E, altitud: 3 m

Observació

L'informe es va fer fa 7 hores i 36 minuts, a les 21:50 UTC
Vent 6 kt del Oest/Nord-Oest
Temperatura 12°C
Humitat 76%
Pressió 1023 hPa
Visibilitat 10 km o més
Cel ennuvolat a una alçada de 4000 ft

METAR: ENVD 072150Z 30006KT 9999 BKN040 12/08 Q1023

Hora: 07:26 (05:26 UTC)

Pronòstic

L'informe es va fer fa 12 hores i 26 minuts, a les 17:00 UTC
Pronòstic vàlid del 07 a les 18 UTC al 07 a les 23 UTC
Vent 9 kt del Nord
Visibilitat 10 km o més
Escasses núvols a una alçada de 1500 ft
Núvols disperses a una alçada de 4000 ft

TAF: ENVD 071700Z 0718/0723 35009KT 9999 FEW015 SCT040

Observacions i pronòstics meteorològics de més de 4000 aeroports (METAR i TAF).

Les estacions disponibles són els punts grocs i vermells al mapa.

Posi el ratolí al punt desitjat per veure el nom de l'estació.

Feu clic per veure les observacions i els pronòstics meteorològics.

Per canviar el mapa: feu clic els botons verds amb una creu de color negre per apropar; al botó verd amb un guió per allunyar la imatge; o en les fletxes verdes per a mapes adjacents.


METAR-TAF: